createdAt,value
2019-02-08T00:02:28.521Z,1.00
2019-02-08T00:07:33.526Z,0.87
2019-02-08T00:12:38.752Z,0.60
2019-02-08T00:17:43.656Z,0.87
2019-02-08T00:22:48.550Z,0.67
2019-02-08T00:27:54.086Z,0.80
2019-02-08T00:32:58.998Z,1.00
2019-02-08T00:38:03.807Z,1.00
2019-02-08T00:43:08.969Z,0.67
2019-02-08T00:48:13.860Z,0.90
2019-02-08T00:53:19.001Z,0.70
2019-02-08T00:58:24.022Z,0.93
2019-02-08T01:03:28.941Z,1.07
2019-02-08T01:08:33.896Z,1.00
2019-02-08T01:13:39.133Z,0.70
2019-02-08T01:18:44.300Z,0.80
2019-02-08T01:23:49.525Z,0.90
2019-02-08T01:28:54.777Z,1.00
2019-02-08T01:34:00.182Z,0.80
2019-02-08T01:39:07.789Z,1.00
2019-02-08T01:44:12.735Z,0.80
2019-02-08T01:49:17.616Z,1.00
2019-02-08T01:54:22.683Z,0.80
2019-02-08T01:59:27.879Z,0.80
2019-02-08T02:04:33.013Z,1.10
2019-02-08T02:09:37.908Z,1.13
2019-02-08T02:14:43.118Z,1.37
2019-02-08T02:19:48.267Z,1.27
2019-02-08T02:24:53.048Z,0.90
2019-02-08T02:29:58.008Z,1.40
2019-02-08T02:35:03.334Z,1.50
2019-02-08T02:40:09.792Z,1.60
2019-02-08T02:45:20.729Z,1.57
2019-02-08T02:50:25.700Z,1.60
2019-02-08T02:55:31.357Z,1.70
2019-02-08T03:00:39.721Z,1.67
2019-02-08T03:05:45.259Z,1.80
2019-02-08T03:10:50.461Z,1.60
2019-02-08T03:15:55.572Z,1.60
2019-02-08T03:21:00.780Z,1.40
2019-02-08T03:26:05.766Z,1.80
2019-02-08T03:31:10.774Z,1.77
2019-02-08T03:36:15.644Z,1.37
2019-02-08T03:41:20.909Z,1.63
2019-02-08T03:46:25.855Z,1.70
2019-02-08T03:51:31.034Z,1.43
2019-02-08T03:56:36.100Z,1.90
2019-02-08T04:01:41.469Z,1.40
2019-02-08T04:06:46.664Z,1.23
2019-02-08T04:11:51.538Z,1.60
2019-02-08T04:16:56.521Z,1.37
2019-02-08T04:22:01.717Z,1.63
2019-02-08T04:27:06.976Z,1.70
2019-02-08T04:32:11.926Z,1.40
2019-02-08T04:37:17.246Z,1.40
2019-02-08T04:42:22.136Z,1.40
2019-02-08T04:47:27.025Z,1.30
2019-02-08T04:52:32.452Z,1.53
2019-02-08T04:57:37.245Z,1.50
2019-02-08T05:02:42.533Z,1.40
2019-02-08T05:07:47.812Z,1.53
2019-02-08T05:12:52.935Z,1.33
2019-02-08T05:17:58.798Z,1.30
2019-02-08T05:23:03.952Z,1.37
2019-02-08T05:28:09.209Z,1.20
2019-02-08T05:33:14.409Z,1.30
2019-02-08T05:38:19.710Z,1.60
2019-02-08T05:43:24.740Z,1.60
2019-02-08T05:48:32.171Z,1.50
2019-02-08T05:53:37.341Z,2.33
2019-02-08T05:58:42.502Z,2.63
2019-02-08T06:03:47.536Z,1.70
2019-02-08T06:08:52.746Z,1.47
2019-02-08T06:13:57.878Z,1.10
2019-02-08T06:19:03.043Z,1.50
2019-02-08T06:24:08.210Z,1.33
2019-02-08T06:29:13.241Z,1.60
2019-02-08T06:34:18.678Z,1.30
2019-02-08T06:39:23.544Z,1.93
2019-02-08T06:44:28.571Z,2.00
2019-02-08T06:49:33.912Z,2.10
2019-02-08T06:54:39.271Z,1.73
2019-02-08T07:00:03.204Z,1.30
2019-02-08T07:05:27.177Z,1.40
2019-02-08T07:10:49.730Z,1.70
2019-02-08T07:16:12.065Z,1.47
2019-02-08T07:21:28.173Z,1.30
2019-02-08T07:26:41.555Z,1.20
2019-02-08T07:31:58.234Z,1.13
2019-02-08T07:37:22.277Z,1.20
2019-02-08T07:42:55.518Z,1.07
2019-02-08T07:48:26.353Z,1.03
2019-02-08T07:54:09.059Z,0.90
2019-02-08T07:59:40.912Z,0.83
2019-02-08T08:05:07.758Z,0.70
2019-02-08T08:10:37.172Z,0.60
2019-02-08T08:15:54.797Z,0.80
2019-02-08T08:21:31.522Z,0.70
2019-02-08T08:26:57.174Z,0.67
2019-02-08T08:32:13.837Z,0.83
2019-02-08T08:37:47.483Z,0.80
2019-02-08T08:43:42.685Z,0.57
2019-02-08T08:49:33.746Z,0.60
2019-02-08T08:55:06.993Z,0.77
2019-02-08T09:00:42.781Z,0.60
2019-02-08T09:06:33.658Z,0.60
2019-02-08T09:12:21.764Z,1.43
2019-02-08T09:18:16.049Z,0.83
2019-02-08T09:23:59.556Z,0.53
2019-02-08T09:29:50.652Z,0.90
2019-02-08T09:35:24.576Z,0.70
2019-02-08T09:41:22.881Z,0.70
2019-02-08T09:47:03.893Z,0.60
2019-02-08T09:52:46.363Z,0.70
2019-02-08T09:58:27.251Z,0.50
2019-02-08T10:04:09.501Z,0.50
2019-02-08T10:09:59.861Z,0.60
2019-02-08T10:15:52.217Z,0.60
2019-02-08T10:21:33.533Z,0.50
2019-02-08T10:27:22.655Z,0.60
2019-02-08T10:33:07.425Z,0.70
2019-02-08T10:38:50.361Z,0.37
2019-02-08T10:44:27.308Z,0.30
2019-02-08T10:50:08.589Z,0.30
2019-02-08T10:55:40.250Z,0.40
2019-02-08T11:01:31.685Z,0.33
2019-02-08T11:07:15.654Z,0.30
2019-02-08T11:13:09.087Z,0.40
2019-02-08T11:18:44.909Z,0.30
2019-02-08T11:23:50.205Z,0.23
2019-02-08T11:28:55.220Z,0.40
2019-02-08T11:34:00.235Z,0.33
2019-02-08T11:39:11.480Z,0.30
2019-02-08T11:44:17.405Z,0.40
2019-02-08T11:49:22.505Z,0.50
2019-02-08T11:54:28.016Z,0.33
2019-02-08T11:59:33.188Z,0.47
2019-02-08T12:04:38.712Z,0.20
2019-02-08T12:09:43.984Z,0.70
2019-02-08T12:14:49.258Z,0.67
2019-02-08T12:19:54.617Z,1.10
2019-02-08T12:24:59.907Z,0.90
2019-02-08T12:30:09.193Z,0.70
2019-02-08T12:35:14.957Z,0.77
2019-02-08T12:40:20.400Z,0.50
2019-02-08T12:45:25.858Z,0.60
2019-02-08T12:50:30.863Z,0.50
2019-02-08T12:55:36.476Z,0.83
2019-02-08T13:00:41.377Z,0.77
2019-02-08T13:05:46.430Z,0.60
2019-02-08T13:10:51.563Z,0.60
2019-02-08T13:15:56.857Z,0.80
2019-02-08T13:21:02.038Z,1.20
2019-02-08T13:26:07.728Z,1.10
2019-02-08T13:31:12.962Z,1.13
2019-02-08T13:36:18.064Z,1.30
2019-02-08T13:41:23.314Z,1.00
2019-02-08T13:46:28.637Z,0.90
2019-02-08T13:51:33.834Z,0.70
2019-02-08T13:56:38.809Z,0.97
2019-02-08T14:01:43.873Z,0.70
2019-02-08T14:06:49.358Z,0.97
2019-02-08T14:11:53.689Z,2.00
2019-02-08T14:16:58.889Z,1.10
2019-02-08T14:22:04.246Z,1.27
2019-02-08T14:27:09.433Z,1.07
2019-02-08T14:32:14.689Z,1.40
2019-02-08T14:37:19.577Z,1.37
2019-02-08T14:42:24.833Z,1.80
2019-02-08T14:47:30.229Z,2.20
2019-02-08T14:52:35.600Z,1.93
2019-02-08T14:57:40.849Z,1.70
2019-02-08T15:02:46.813Z,1.37
2019-02-08T15:07:52.413Z,1.47
2019-02-08T15:12:57.352Z,1.50
2019-02-08T15:18:02.572Z,1.30
2019-02-08T15:23:07.910Z,1.47
2019-02-08T15:28:12.871Z,1.20
2019-02-08T15:33:18.128Z,1.60
2019-02-08T15:38:25.986Z,1.53
2019-02-08T15:43:30.974Z,1.30
2019-02-08T15:48:36.314Z,1.10
2019-02-08T15:53:41.384Z,1.10
2019-02-08T15:58:46.778Z,1.10
2019-02-08T16:03:52.076Z,0.83
2019-02-08T16:08:57.062Z,1.00
2019-02-08T16:14:02.483Z,0.80
2019-02-08T16:19:07.945Z,0.97
2019-02-08T16:24:13.907Z,0.90
2019-02-08T16:29:19.097Z,0.90
2019-02-08T16:34:24.777Z,0.97
2019-02-08T16:39:30.012Z,0.70
2019-02-08T16:44:35.146Z,0.83
2019-02-08T16:49:40.538Z,0.80
2019-02-08T16:54:47.067Z,1.40
2019-02-08T16:59:52.216Z,1.00
2019-02-08T17:04:57.714Z,1.00
2019-02-08T17:10:04.341Z,0.80
2019-02-08T17:15:11.715Z,1.20
2019-02-08T17:20:26.023Z,0.70
2019-02-08T17:25:50.573Z,0.73
2019-02-08T17:30:56.196Z,0.60
2019-02-08T17:36:01.635Z,0.90
2019-02-08T17:41:07.587Z,1.03
2019-02-08T17:46:12.745Z,0.80
2019-02-08T17:51:17.997Z,1.37
2019-02-08T17:56:23.181Z,1.17
2019-02-08T18:01:28.143Z,0.80
2019-02-08T18:06:33.348Z,1.00
2019-02-08T18:11:38.545Z,1.10
2019-02-08T18:16:43.524Z,0.90
2019-02-08T18:21:48.593Z,0.90
2019-02-08T18:26:53.673Z,0.90
2019-02-08T18:31:58.755Z,0.97
2019-02-08T18:37:03.684Z,0.87
2019-02-08T18:42:08.622Z,0.73
2019-02-08T18:47:13.947Z,0.90
2019-02-08T18:52:21.175Z,1.00
2019-02-08T18:57:26.234Z,1.03
2019-02-08T19:02:35.678Z,1.00
2019-02-08T19:07:44.539Z,1.10
2019-02-08T19:12:50.082Z,1.50
2019-02-08T19:17:55.745Z,1.40
2019-02-08T19:23:03.378Z,1.33
2019-02-08T19:28:09.302Z,0.90
2019-02-08T19:33:15.596Z,1.00
2019-02-08T19:38:20.947Z,1.00
2019-02-08T19:43:30.093Z,1.47
2019-02-08T19:48:36.933Z,1.30
2019-02-08T19:53:44.359Z,1.00
2019-02-08T19:58:50.016Z,0.90
2019-02-08T20:03:55.238Z,1.10
2019-02-08T20:09:00.429Z,1.17
2019-02-08T20:14:10.909Z,1.17
2019-02-08T20:19:15.879Z,1.30
2019-02-08T20:24:21.478Z,1.40
2019-02-08T20:29:26.577Z,1.17
2019-02-08T20:34:32.458Z,1.63
2019-02-08T20:39:38.206Z,1.07
2019-02-08T20:44:45.289Z,0.97
2019-02-08T20:49:51.673Z,1.10
2019-02-08T20:54:57.361Z,1.10
2019-02-08T21:00:02.793Z,0.90
2019-02-08T21:05:09.848Z,1.00
2019-02-08T21:10:15.177Z,1.23
2019-02-08T21:15:24.519Z,1.30
2019-02-08T21:20:31.686Z,1.23
2019-02-08T21:25:36.982Z,0.90
2019-02-08T21:30:42.302Z,1.30
2019-02-08T21:35:47.522Z,1.23
2019-02-08T21:40:53.201Z,0.80
2019-02-08T21:45:58.226Z,0.90
2019-02-08T21:51:03.445Z,1.00
2019-02-08T21:56:08.329Z,1.10
2019-02-08T22:01:13.704Z,1.20
2019-02-08T22:06:19.675Z,0.97
2019-02-08T22:11:25.222Z,1.00
2019-02-08T22:16:34.285Z,0.90
2019-02-08T22:21:41.334Z,1.10
2019-02-08T22:26:46.334Z,1.00
2019-02-08T22:31:51.736Z,1.07
2019-02-08T22:36:56.665Z,0.93
2019-02-08T22:42:01.612Z,1.13
2019-02-08T22:47:06.773Z,1.00
2019-02-08T22:52:11.945Z,1.30
2019-02-08T22:57:17.197Z,0.97
2019-02-08T23:02:22.352Z,1.13
2019-02-08T23:07:27.262Z,1.00
2019-02-08T23:12:32.126Z,0.90
2019-02-08T23:17:37.117Z,1.10
2019-02-08T23:22:42.541Z,0.97
2019-02-08T23:27:48.004Z,1.17
2019-02-08T23:32:52.889Z,1.17
2019-02-08T23:37:57.773Z,1.17
2019-02-08T23:43:02.952Z,1.00
2019-02-08T23:48:07.932Z,1.30
2019-02-08T23:53:14.292Z,1.20
2019-02-08T23:58:19.430Z,1.07
